sensor_id;sensor_type;location;lat;lon;timestamp;P1;durP1;ratioP1;P2;durP2;ratioP2
1925;SDS011;964;42.606;23.588;2024-02-28T00:00:56;33.90;;;20.30;;
1925;SDS011;964;42.606;23.588;2024-02-28T00:03:23;40.73;;;22.83;;
1925;SDS011;964;42.606;23.588;2024-02-28T00:05:51;35.70;;;20.20;;
1925;SDS011;964;42.606;23.588;2024-02-28T00:08:18;31.87;;;20.40;;
1925;SDS011;964;42.606;23.588;2024-02-28T00:10:45;33.70;;;18.00;;
1925;SDS011;964;42.606;23.588;2024-02-28T00:13:12;32.83;;;17.87;;
1925;SDS011;964;42.606;23.588;2024-02-28T00:15:40;36.60;;;19.77;;
1925;SDS011;964;42.606;23.588;2024-02-28T00:18:07;35.13;;;19.10;;
1925;SDS011;964;42.606;23.588;2024-02-28T00:20:35;31.13;;;19.37;;
1925;SDS011;964;42.606;23.588;2024-02-28T00:23:03;31.03;;;18.43;;
1925;SDS011;964;42.606;23.588;2024-02-28T00:25:30;33.47;;;18.77;;
1925;SDS011;964;42.606;23.588;2024-02-28T00:27:57;32.90;;;18.17;;
1925;SDS011;964;42.606;23.588;2024-02-28T00:30:23;24.80;;;15.30;;
1925;SDS011;964;42.606;23.588;2024-02-28T00:32:50;26.97;;;15.60;;
1925;SDS011;964;42.606;23.588;2024-02-28T00:35:17;35.53;;;21.00;;
1925;SDS011;964;42.606;23.588;2024-02-28T00:37:43;32.03;;;16.80;;
1925;SDS011;964;42.606;23.588;2024-02-28T00:40:12;28.20;;;16.30;;
1925;SDS011;964;42.606;23.588;2024-02-28T00:42:39;26.03;;;15.23;;
1925;SDS011;964;42.606;23.588;2024-02-28T00:45:07;30.37;;;17.63;;
1925;SDS011;964;42.606;23.588;2024-02-28T00:47:35;32.23;;;17.70;;
1925;SDS011;964;42.606;23.588;2024-02-28T00:50:04;34.20;;;17.93;;
1925;SDS011;964;42.606;23.588;2024-02-28T00:52:31;28.83;;;15.90;;
1925;SDS011;964;42.606;23.588;2024-02-28T00:54:58;28.87;;;15.63;;
1925;SDS011;964;42.606;23.588;2024-02-28T00:57:27;34.37;;;17.50;;
1925;SDS011;964;42.606;23.588;2024-02-28T00:59:53;31.53;;;17.60;;
1925;SDS011;964;42.606;23.588;2024-02-28T01:02:20;30.57;;;18.47;;
1925;SDS011;964;42.606;23.588;2024-02-28T01:04:47;32.90;;;19.73;;
1925;SDS011;964;42.606;23.588;2024-02-28T01:07:13;36.93;;;20.80;;
1925;SDS011;964;42.606;23.588;2024-02-28T01:09:40;26.13;;;16.37;;
1925;SDS011;964;42.606;23.588;2024-02-28T01:12:07;29.60;;;15.93;;
1925;SDS011;964;42.606;23.588;2024-02-28T01:14:35;34.20;;;17.73;;
1925;SDS011;964;42.606;23.588;2024-02-28T01:17:02;32.70;;;19.27;;
1925;SDS011;964;42.606;23.588;2024-02-28T01:19:28;26.90;;;18.07;;
1925;SDS011;964;42.606;23.588;2024-02-28T01:21:56;33.93;;;17.60;;
1925;SDS011;964;42.606;23.588;2024-02-28T01:24:23;32.63;;;20.10;;
1925;SDS011;964;42.606;23.588;2024-02-28T01:26:50;39.37;;;17.50;;
1925;SDS011;964;42.606;23.588;2024-02-28T01:29:16;33.73;;;18.90;;
1925;SDS011;964;42.606;23.588;2024-02-28T01:31:45;31.77;;;17.60;;
1925;SDS011;964;42.606;23.588;2024-02-28T01:34:12;34.40;;;16.63;;
1925;SDS011;964;42.606;23.588;2024-02-28T01:36:39;34.43;;;16.80;;
1925;SDS011;964;42.606;23.588;2024-02-28T01:39:05;29.03;;;16.60;;
1925;SDS011;964;42.606;23.588;2024-02-28T01:41:33;34.13;;;17.87;;
1925;SDS011;964;42.606;23.588;2024-02-28T01:44:00;33.50;;;18.60;;
1925;SDS011;964;42.606;23.588;2024-02-28T01:46:26;30.70;;;17.20;;
1925;SDS011;964;42.606;23.588;2024-02-28T01:48:55;30.73;;;17.83;;
1925;SDS011;964;42.606;23.588;2024-02-28T01:51:23;38.40;;;17.17;;
1925;SDS011;964;42.606;23.588;2024-02-28T01:53:52;33.70;;;18.00;;
1925;SDS011;964;42.606;23.588;2024-02-28T01:56:20;32.90;;;18.30;;
1925;SDS011;964;42.606;23.588;2024-02-28T01:58:49;31.73;;;18.37;;
1925;SDS011;964;42.606;23.588;2024-02-28T02:01:16;35.53;;;19.37;;
1925;SDS011;964;42.606;23.588;2024-02-28T02:03:43;39.43;;;19.47;;
1925;SDS011;964;42.606;23.588;2024-02-28T02:06:12;43.57;;;20.03;;
1925;SDS011;964;42.606;23.588;2024-02-28T02:08:39;31.47;;;18.40;;
1925;SDS011;964;42.606;23.588;2024-02-28T02:11:06;41.57;;;19.30;;
1925;SDS011;964;42.606;23.588;2024-02-28T02:13:33;33.30;;;18.23;;
1925;SDS011;964;42.606;23.588;2024-02-28T02:16:00;39.43;;;19.27;;
1925;SDS011;964;42.606;23.588;2024-02-28T02:18:27;32.97;;;19.37;;
1925;SDS011;964;42.606;23.588;2024-02-28T02:20:54;37.70;;;21.30;;
1925;SDS011;964;42.606;23.588;2024-02-28T02:23:26;34.43;;;19.10;;
1925;SDS011;964;42.606;23.588;2024-02-28T02:25:53;32.70;;;17.90;;
1925;SDS011;964;42.606;23.588;2024-02-28T02:28:19;34.40;;;18.50;;
1925;SDS011;964;42.606;23.588;2024-02-28T02:30:46;37.37;;;19.47;;
1925;SDS011;964;42.606;23.588;2024-02-28T02:33:12;38.20;;;19.80;;
1925;SDS011;964;42.606;23.588;2024-02-28T02:35:39;39.10;;;19.47;;
1925;SDS011;964;42.606;23.588;2024-02-28T02:38:06;38.80;;;21.07;;
1925;SDS011;964;42.606;23.588;2024-02-28T02:40:34;36.73;;;17.63;;
1925;SDS011;964;42.606;23.588;2024-02-28T02:43:01;29.43;;;17.10;;
1925;SDS011;964;42.606;23.588;2024-02-28T02:45:27;33.30;;;16.70;;
1925;SDS011;964;42.606;23.588;2024-02-28T02:47:54;30.00;;;15.73;;
1925;SDS011;964;42.606;23.588;2024-02-28T02:50:21;25.70;;;15.10;;
1925;SDS011;964;42.606;23.588;2024-02-28T02:52:47;30.30;;;16.60;;
1925;SDS011;964;42.606;23.588;2024-02-28T02:55:14;30.77;;;15.80;;
1925;SDS011;964;42.606;23.588;2024-02-28T02:57:42;33.47;;;16.60;;
1925;SDS011;964;42.606;23.588;2024-02-28T03:00:09;28.07;;;15.00;;
1925;SDS011;964;42.606;23.588;2024-02-28T03:02:36;34.10;;;17.33;;
1925;SDS011;964;42.606;23.588;2024-02-28T03:05:05;31.47;;;17.30;;
1925;SDS011;964;42.606;23.588;2024-02-28T03:07:32;27.73;;;15.40;;
1925;SDS011;964;42.606;23.588;2024-02-28T03:09:59;31.03;;;16.73;;
1925;SDS011;964;42.606;23.588;2024-02-28T03:12:25;32.63;;;16.40;;
1925;SDS011;964;42.606;23.588;2024-02-28T03:14:54;32.63;;;17.37;;
1925;SDS011;964;42.606;23.588;2024-02-28T03:17:20;30.70;;;17.77;;
1925;SDS011;964;42.606;23.588;2024-02-28T03:19:47;31.90;;;16.27;;
1925;SDS011;964;42.606;23.588;2024-02-28T03:22:14;31.63;;;17.10;;
1925;SDS011;964;42.606;23.588;2024-02-28T03:24:41;36.50;;;18.90;;
1925;SDS011;964;42.606;23.588;2024-02-28T03:27:07;36.70;;;19.53;;
1925;SDS011;964;42.606;23.588;2024-02-28T03:29:34;38.80;;;19.83;;
1925;SDS011;964;42.606;23.588;2024-02-28T03:32:04;34.60;;;19.13;;
1925;SDS011;964;42.606;23.588;2024-02-28T03:34:31;36.77;;;20.70;;
1925;SDS011;964;42.606;23.588;2024-02-28T03:36:57;42.20;;;21.13;;
1925;SDS011;964;42.606;23.588;2024-02-28T03:39:24;38.97;;;20.97;;
1925;SDS011;964;42.606;23.588;2024-02-28T03:41:51;40.97;;;19.60;;
1925;SDS011;964;42.606;23.588;2024-02-28T03:44:18;35.13;;;18.10;;
1925;SDS011;964;42.606;23.588;2024-02-28T03:46:46;38.00;;;19.07;;
1925;SDS011;964;42.606;23.588;2024-02-28T03:49:14;33.40;;;17.90;;
1925;SDS011;964;42.606;23.588;2024-02-28T03:51:41;27.30;;;13.90;;
1925;SDS011;964;42.606;23.588;2024-02-28T03:54:08;35.57;;;20.30;;
1925;SDS011;964;42.606;23.588;2024-02-28T03:56:35;39.33;;;18.57;;
1925;SDS011;964;42.606;23.588;2024-02-28T03:59:01;32.83;;;17.77;;
1925;SDS011;964;42.606;23.588;2024-02-28T04:01:29;40.87;;;17.13;;
1925;SDS011;964;42.606;23.588;2024-02-28T04:03:56;40.20;;;19.83;;
1925;SDS011;964;42.606;23.588;2024-02-28T04:06:24;32.13;;;17.90;;
1925;SDS011;964;42.606;23.588;2024-02-28T04:08:51;37.47;;;21.13;;
1925;SDS011;964;42.606;23.588;2024-02-28T04:11:19;34.73;;;18.90;;
1925;SDS011;964;42.606;23.588;2024-02-28T04:13:46;37.10;;;20.47;;
1925;SDS011;964;42.606;23.588;2024-02-28T04:16:13;34.67;;;19.03;;
1925;SDS011;964;42.606;23.588;2024-02-28T04:18:40;36.67;;;18.63;;
1925;SDS011;964;42.606;23.588;2024-02-28T04:21:07;36.83;;;18.80;;
1925;SDS011;964;42.606;23.588;2024-02-28T04:23:35;38.10;;;18.60;;
1925;SDS011;964;42.606;23.588;2024-02-28T04:26:03;37.40;;;21.30;;
1925;SDS011;964;42.606;23.588;2024-02-28T04:28:30;32.77;;;17.37;;
1925;SDS011;964;42.606;23.588;2024-02-28T04:30:56;35.33;;;17.80;;
1925;SDS011;964;42.606;23.588;2024-02-28T04:33:23;41.40;;;21.20;;
1925;SDS011;964;42.606;23.588;2024-02-28T04:35:50;29.40;;;14.57;;
1925;SDS011;964;42.606;23.588;2024-02-28T04:38:16;39.43;;;20.57;;
1925;SDS011;964;42.606;23.588;2024-02-28T04:40:44;37.97;;;19.97;;
1925;SDS011;964;42.606;23.588;2024-02-28T04:43:11;36.93;;;19.87;;
1925;SDS011;964;42.606;23.588;2024-02-28T04:45:38;36.23;;;20.57;;
1925;SDS011;964;42.606;23.588;2024-02-28T04:48:05;42.20;;;21.60;;
1925;SDS011;964;42.606;23.588;2024-02-28T04:50:33;42.77;;;22.93;;
1925;SDS011;964;42.606;23.588;2024-02-28T04:52:59;35.47;;;19.23;;
1925;SDS011;964;42.606;23.588;2024-02-28T04:55:26;36.03;;;18.90;;
1925;SDS011;964;42.606;23.588;2024-02-28T04:57:55;33.90;;;15.70;;
1925;SDS011;964;42.606;23.588;2024-02-28T05:00:21;34.27;;;17.63;;
1925;SDS011;964;42.606;23.588;2024-02-28T05:02:48;32.87;;;15.67;;
1925;SDS011;964;42.606;23.588;2024-02-28T05:05:15;37.90;;;20.43;;
1925;SDS011;964;42.606;23.588;2024-02-28T05:07:42;33.73;;;20.93;;
1925;SDS011;964;42.606;23.588;2024-02-28T05:10:09;34.90;;;16.97;;
1925;SDS011;964;42.606;23.588;2024-02-28T05:12:36;33.93;;;18.20;;
1925;SDS011;964;42.606;23.588;2024-02-28T05:15:04;38.80;;;19.70;;
1925;SDS011;964;42.606;23.588;2024-02-28T05:17:32;35.90;;;18.37;;
1925;SDS011;964;42.606;23.588;2024-02-28T05:19:58;41.40;;;21.23;;
1925;SDS011;964;42.606;23.588;2024-02-28T05:22:25;41.00;;;21.90;;
1925;SDS011;964;42.606;23.588;2024-02-28T05:24:52;62.70;;;26.87;;
1925;SDS011;964;42.606;23.588;2024-02-28T05:27:19;61.90;;;23.90;;
1925;SDS011;964;42.606;23.588;2024-02-28T05:29:46;38.90;;;16.67;;
1925;SDS011;964;42.606;23.588;2024-02-28T05:32:13;43.47;;;19.90;;
1925;SDS011;964;42.606;23.588;2024-02-28T05:34:42;44.53;;;21.13;;
1925;SDS011;964;42.606;23.588;2024-02-28T05:37:09;30.77;;;15.83;;
1925;SDS011;964;42.606;23.588;2024-02-28T05:39:35;58.27;;;28.27;;
1925;SDS011;964;42.606;23.588;2024-02-28T05:42:02;64.03;;;33.37;;
1925;SDS011;964;42.606;23.588;2024-02-28T05:44:29;41.60;;;21.20;;
1925;SDS011;964;42.606;23.588;2024-02-28T05:46:56;45.30;;;21.03;;
1925;SDS011;964;42.606;23.588;2024-02-28T05:49:24;27.80;;;16.03;;
1925;SDS011;964;42.606;23.588;2024-02-28T05:51:51;30.63;;;16.80;;
1925;SDS011;964;42.606;23.588;2024-02-28T05:54:19;23.50;;;13.23;;
1925;SDS011;964;42.606;23.588;2024-02-28T05:56:45;30.33;;;14.50;;
1925;SDS011;964;42.606;23.588;2024-02-28T05:59:12;24.43;;;13.23;;
1925;SDS011;964;42.606;23.588;2024-02-28T06:01:39;33.27;;;19.40;;
1925;SDS011;964;42.606;23.588;2024-02-28T06:04:06;36.37;;;18.13;;
1925;SDS011;964;42.606;23.588;2024-02-28T06:06:34;21.77;;;11.27;;
1925;SDS011;964;42.606;23.588;2024-02-28T06:09:02;21.90;;;12.57;;
1925;SDS011;964;42.606;23.588;2024-02-28T06:11:29;30.97;;;15.37;;
1925;SDS011;964;42.606;23.588;2024-02-28T06:13:56;27.73;;;14.40;;
1925;SDS011;964;42.606;23.588;2024-02-28T06:16:23;32.17;;;15.37;;
1925;SDS011;964;42.606;23.588;2024-02-28T06:18:50;26.33;;;13.87;;
1925;SDS011;964;42.606;23.588;2024-02-28T06:21:16;43.70;;;20.97;;
1925;SDS011;964;42.606;23.588;2024-02-28T06:23:44;20.73;;;12.83;;
1925;SDS011;964;42.606;23.588;2024-02-28T06:26:11;14.43;;;7.63;;
1925;SDS011;964;42.606;23.588;2024-02-28T06:28:42;45.70;;;20.17;;
1925;SDS011;964;42.606;23.588;2024-02-28T06:31:14;36.33;;;18.27;;
1925;SDS011;964;42.606;23.588;2024-02-28T06:33:41;30.83;;;16.17;;
1925;SDS011;964;42.606;23.588;2024-02-28T06:36:08;26.63;;;13.90;;
1925;SDS011;964;42.606;23.588;2024-02-28T06:38:34;39.73;;;21.00;;
1925;SDS011;964;42.606;23.588;2024-02-28T06:41:03;32.30;;;15.20;;
1925;SDS011;964;42.606;23.588;2024-02-28T06:43:32;39.33;;;21.00;;
1925;SDS011;964;42.606;23.588;2024-02-28T06:45:59;35.07;;;19.27;;
1925;SDS011;964;42.606;23.588;2024-02-28T06:48:26;33.00;;;17.93;;
1925;SDS011;964;42.606;23.588;2024-02-28T06:50:53;31.17;;;17.03;;
1925;SDS011;964;42.606;23.588;2024-02-28T06:53:20;28.07;;;15.70;;
1925;SDS011;964;42.606;23.588;2024-02-28T06:55:47;21.40;;;13.27;;
1925;SDS011;964;42.606;23.588;2024-02-28T06:58:15;22.40;;;12.30;;
1925;SDS011;964;42.606;23.588;2024-02-28T07:00:42;13.17;;;7.60;;
1925;SDS011;964;42.606;23.588;2024-02-28T07:03:09;23.47;;;12.33;;
1925;SDS011;964;42.606;23.588;2024-02-28T07:05:36;22.53;;;11.23;;
1925;SDS011;964;42.606;23.588;2024-02-28T07:08:03;28.30;;;13.20;;
1925;SDS011;964;42.606;23.588;2024-02-28T07:10:30;22.57;;;13.00;;
1925;SDS011;964;42.606;23.588;2024-02-28T07:12:57;23.17;;;13.77;;
1925;SDS011;964;42.606;23.588;2024-02-28T07:15:25;22.53;;;13.70;;
1925;SDS011;964;42.606;23.588;2024-02-28T07:17:52;35.80;;;17.80;;
1925;SDS011;964;42.606;23.588;2024-02-28T07:20:19;13.57;;;8.70;;
1925;SDS011;964;42.606;23.588;2024-02-28T07:22:46;24.50;;;14.53;;
1925;SDS011;964;42.606;23.588;2024-02-28T07:25:13;19.47;;;8.97;;
1925;SDS011;964;42.606;23.588;2024-02-28T07:27:39;17.50;;;11.10;;
1925;SDS011;964;42.606;23.588;2024-02-28T07:30:07;26.67;;;13.37;;
1925;SDS011;964;42.606;23.588;2024-02-28T07:32:35;24.77;;;15.13;;
1925;SDS011;964;42.606;23.588;2024-02-28T07:35:02;26.33;;;16.40;;
1925;SDS011;964;42.606;23.588;2024-02-28T07:37:29;32.00;;;14.70;;
1925;SDS011;964;42.606;23.588;2024-02-28T07:39:56;23.03;;;14.50;;
1925;SDS011;964;42.606;23.588;2024-02-28T07:42:23;24.50;;;13.90;;
1925;SDS011;964;42.606;23.588;2024-02-28T07:44:50;23.70;;;14.17;;
1925;SDS011;964;42.606;23.588;2024-02-28T07:47:21;31.43;;;17.57;;
1925;SDS011;964;42.606;23.588;2024-02-28T07:49:50;25.53;;;13.67;;
1925;SDS011;964;42.606;23.588;2024-02-28T07:52:18;23.20;;;14.83;;
1925;SDS011;964;42.606;23.588;2024-02-28T07:54:45;17.87;;;10.93;;
1925;SDS011;964;42.606;23.588;2024-02-28T07:57:12;20.27;;;12.60;;
1925;SDS011;964;42.606;23.588;2024-02-28T07:59:40;22.83;;;14.90;;
1925;SDS011;964;42.606;23.588;2024-02-28T08:02:07;20.20;;;13.63;;
1925;SDS011;964;42.606;23.588;2024-02-28T08:04:35;23.80;;;14.77;;
1925;SDS011;964;42.606;23.588;2024-02-28T08:07:03;18.83;;;12.50;;
1925;SDS011;964;42.606;23.588;2024-02-28T08:09:30;22.20;;;13.60;;
1925;SDS011;964;42.606;23.588;2024-02-28T08:11:57;20.77;;;12.73;;
1925;SDS011;964;42.606;23.588;2024-02-28T08:14:24;22.17;;;13.57;;
1925;SDS011;964;42.606;23.588;2024-02-28T08:16:51;19.57;;;11.90;;
1925;SDS011;964;42.606;23.588;2024-02-28T08:19:17;16.37;;;11.00;;
1925;SDS011;964;42.606;23.588;2024-02-28T08:21:44;14.37;;;11.00;;
1925;SDS011;964;42.606;23.588;2024-02-28T08:24:12;18.73;;;8.90;;
1925;SDS011;964;42.606;23.588;2024-02-28T08:26:39;15.20;;;11.00;;
1925;SDS011;964;42.606;23.588;2024-02-28T08:29:07;21.57;;;12.80;;
1925;SDS011;964;42.606;23.588;2024-02-28T08:31:39;14.53;;;10.70;;
1925;SDS011;964;42.606;23.588;2024-02-28T08:34:06;14.47;;;9.70;;
1925;SDS011;964;42.606;23.588;2024-02-28T08:36:33;14.97;;;10.33;;
1925;SDS011;964;42.606;23.588;2024-02-28T08:39:00;17.83;;;11.23;;
1925;SDS011;964;42.606;23.588;2024-02-28T08:41:31;11.00;;;8.70;;
1925;SDS011;964;42.606;23.588;2024-02-28T08:43:58;15.20;;;10.50;;
1925;SDS011;964;42.606;23.588;2024-02-28T08:46:24;15.10;;;10.17;;
1925;SDS011;964;42.606;23.588;2024-02-28T08:48:51;14.50;;;10.60;;
1925;SDS011;964;42.606;23.588;2024-02-28T08:51:18;14.13;;;10.27;;
1925;SDS011;964;42.606;23.588;2024-02-28T08:53:45;12.60;;;9.70;;
1925;SDS011;964;42.606;23.588;2024-02-28T08:56:12;17.60;;;10.90;;
1925;SDS011;964;42.606;23.588;2024-02-28T08:58:40;17.57;;;9.80;;
1925;SDS011;964;42.606;23.588;2024-02-28T09:01:07;16.47;;;10.17;;
1925;SDS011;964;42.606;23.588;2024-02-28T09:03:33;15.00;;;10.50;;
1925;SDS011;964;42.606;23.588;2024-02-28T09:06:00;14.80;;;9.50;;
1925;SDS011;964;42.606;23.588;2024-02-28T09:08:27;12.10;;;9.63;;
1925;SDS011;964;42.606;23.588;2024-02-28T09:10:54;13.70;;;8.90;;
1925;SDS011;964;42.606;23.588;2024-02-28T09:13:20;16.70;;;10.60;;
1925;SDS011;964;42.606;23.588;2024-02-28T09:15:49;16.87;;;10.57;;
1925;SDS011;964;42.606;23.588;2024-02-28T09:18:16;12.80;;;9.43;;
1925;SDS011;964;42.606;23.588;2024-02-28T09:20:43;16.43;;;10.60;;
1925;SDS011;964;42.606;23.588;2024-02-28T09:23:09;16.70;;;10.40;;
1925;SDS011;964;42.606;23.588;2024-02-28T09:25:36;13.73;;;9.17;;
1925;SDS011;964;42.606;23.588;2024-02-28T09:28:03;14.10;;;9.17;;
1925;SDS011;964;42.606;23.588;2024-02-28T09:30:30;7.40;;;5.30;;
1925;SDS011;964;42.606;23.588;2024-02-28T09:32:58;11.27;;;7.50;;
1925;SDS011;964;42.606;23.588;2024-02-28T09:35:25;14.87;;;9.03;;
1925;SDS011;964;42.606;23.588;2024-02-28T09:37:52;12.87;;;8.70;;
1925;SDS011;964;42.606;23.588;2024-02-28T09:40:19;10.23;;;7.77;;
1925;SDS011;964;42.606;23.588;2024-02-28T09:42:47;12.73;;;8.97;;
1925;SDS011;964;42.606;23.588;2024-02-28T09:45:19;11.17;;;8.70;;
1925;SDS011;964;42.606;23.588;2024-02-28T09:47:47;8.50;;;5.77;;
1925;SDS011;964;42.606;23.588;2024-02-28T09:50:16;12.80;;;8.30;;
1925;SDS011;964;42.606;23.588;2024-02-28T09:52:45;12.73;;;8.33;;
1925;SDS011;964;42.606;23.588;2024-02-28T09:55:12;14.80;;;8.80;;
1925;SDS011;964;42.606;23.588;2024-02-28T09:57:38;13.83;;;8.20;;
1925;SDS011;964;42.606;23.588;2024-02-28T10:00:09;11.60;;;8.30;;
1925;SDS011;964;42.606;23.588;2024-02-28T10:02:36;9.40;;;7.87;;
1925;SDS011;964;42.606;23.588;2024-02-28T10:05:05;13.43;;;8.30;;
1925;SDS011;964;42.606;23.588;2024-02-28T10:07:35;14.07;;;8.10;;
1925;SDS011;964;42.606;23.588;2024-02-28T10:10:01;13.13;;;8.67;;
1925;SDS011;964;42.606;23.588;2024-02-28T10:12:29;9.43;;;7.40;;
1925;SDS011;964;42.606;23.588;2024-02-28T10:14:56;9.80;;;7.90;;
1925;SDS011;964;42.606;23.588;2024-02-28T10:17:22;15.70;;;8.10;;
1925;SDS011;964;42.606;23.588;2024-02-28T10:19:51;13.60;;;9.33;;
1925;SDS011;964;42.606;23.588;2024-02-28T10:22:18;15.43;;;10.40;;
1925;SDS011;964;42.606;23.588;2024-02-28T10:24:46;15.73;;;9.20;;
1925;SDS011;964;42.606;23.588;2024-02-28T10:27:15;16.33;;;10.27;;
1925;SDS011;964;42.606;23.588;2024-02-28T10:29:44;18.40;;;10.00;;
1925;SDS011;964;42.606;23.588;2024-02-28T10:32:12;16.83;;;8.63;;
1925;SDS011;964;42.606;23.588;2024-02-28T10:34:38;19.93;;;9.80;;
1925;SDS011;964;42.606;23.588;2024-02-28T10:37:06;19.83;;;12.20;;
1925;SDS011;964;42.606;23.588;2024-02-28T10:39:35;19.17;;;10.77;;
1925;SDS011;964;42.606;23.588;2024-02-28T10:42:04;16.13;;;10.40;;
1925;SDS011;964;42.606;23.588;2024-02-28T10:44:33;15.47;;;10.33;;
1925;SDS011;964;42.606;23.588;2024-02-28T10:47:02;16.73;;;10.67;;
1925;SDS011;964;42.606;23.588;2024-02-28T10:49:29;11.57;;;9.90;;
1925;SDS011;964;42.606;23.588;2024-02-28T10:51:56;14.80;;;11.23;;
1925;SDS011;964;42.606;23.588;2024-02-28T10:54:25;13.23;;;9.70;;
1925;SDS011;964;42.606;23.588;2024-02-28T10:56:56;16.87;;;11.00;;
1925;SDS011;964;42.606;23.588;2024-02-28T10:59:26;14.80;;;10.50;;
1925;SDS011;964;42.606;23.588;2024-02-28T11:01:56;12.95;;;8.48;;
1925;SDS011;964;42.606;23.588;2024-02-28T11:04:22;10.93;;;8.47;;
1925;SDS011;964;42.606;23.588;2024-02-28T11:06:50;10.90;;;7.90;;
1925;SDS011;964;42.606;23.588;2024-02-28T11:09:21;10.47;;;6.63;;
1925;SDS011;964;42.606;23.588;2024-02-28T11:11:48;14.30;;;8.20;;
1925;SDS011;964;42.606;23.588;2024-02-28T11:14:16;15.10;;;9.17;;
1925;SDS011;964;42.606;23.588;2024-02-28T11:16:48;10.93;;;8.20;;
1925;SDS011;964;42.606;23.588;2024-02-28T11:19:27;12.80;;;8.47;;
1925;SDS011;964;42.606;23.588;2024-02-28T11:21:54;11.30;;;8.17;;
1925;SDS011;964;42.606;23.588;2024-02-28T11:24:22;11.27;;;6.83;;
1925;SDS011;964;42.606;23.588;2024-02-28T11:26:49;11.87;;;7.40;;
1925;SDS011;964;42.606;23.588;2024-02-28T11:29:16;7.17;;;6.43;;
1925;SDS011;964;42.606;23.588;2024-02-28T11:31:49;9.13;;;6.90;;
1925;SDS011;964;42.606;23.588;2024-02-28T11:34:16;9.20;;;6.03;;
1925;SDS011;964;42.606;23.588;2024-02-28T11:36:43;9.03;;;5.83;;
1925;SDS011;964;42.606;23.588;2024-02-28T11:39:13;9.90;;;6.00;;
1925;SDS011;964;42.606;23.588;2024-02-28T11:41:39;8.37;;;6.60;;
1925;SDS011;964;42.606;23.588;2024-02-28T11:44:06;7.30;;;5.27;;
1925;SDS011;964;42.606;23.588;2024-02-28T11:46:33;8.40;;;6.40;;
1925;SDS011;964;42.606;23.588;2024-02-28T11:49:01;13.33;;;6.60;;
1925;SDS011;964;42.606;23.588;2024-02-28T11:51:30;6.90;;;5.93;;
1925;SDS011;964;42.606;23.588;2024-02-28T11:53:57;8.90;;;5.97;;
1925;SDS011;964;42.606;23.588;2024-02-28T11:56:27;9.23;;;6.77;;
1925;SDS011;964;42.606;23.588;2024-02-28T11:58:54;7.10;;;6.10;;
1925;SDS011;964;42.606;23.588;2024-02-28T12:01:34;7.70;;;6.00;;
1925;SDS011;964;42.606;23.588;2024-02-28T12:04:04;7.83;;;5.87;;
1925;SDS011;964;42.606;23.588;2024-02-28T12:06:31;8.30;;;5.60;;
1925;SDS011;964;42.606;23.588;2024-02-28T12:08:59;5.63;;;4.77;;
1925;SDS011;964;42.606;23.588;2024-02-28T12:11:27;6.03;;;5.37;;
1925;SDS011;964;42.606;23.588;2024-02-28T12:13:56;6.20;;;5.47;;
1925;SDS011;964;42.606;23.588;2024-02-28T12:16:24;9.33;;;5.70;;
1925;SDS011;964;42.606;23.588;2024-02-28T12:18:51;12.63;;;6.10;;
1925;SDS011;964;42.606;23.588;2024-02-28T12:21:19;8.60;;;5.80;;
1925;SDS011;964;42.606;23.588;2024-02-28T12:23:46;6.70;;;4.30;;
1925;SDS011;964;42.606;23.588;2024-02-28T12:26:14;6.47;;;4.83;;
1925;SDS011;964;42.606;23.588;2024-02-28T12:28:43;5.60;;;4.23;;
1925;SDS011;964;42.606;23.588;2024-02-28T12:31:09;8.07;;;5.70;;
1925;SDS011;964;42.606;23.588;2024-02-28T12:33:38;6.33;;;5.37;;
1925;SDS011;964;42.606;23.588;2024-02-28T12:36:05;8.13;;;4.83;;
1925;SDS011;964;42.606;23.588;2024-02-28T12:38:34;5.80;;;4.67;;
1925;SDS011;964;42.606;23.588;2024-02-28T12:41:01;5.73;;;5.13;;
1925;SDS011;964;42.606;23.588;2024-02-28T12:43:29;6.43;;;4.60;;
1925;SDS011;964;42.606;23.588;2024-02-28T12:45:56;10.20;;;4.83;;
1925;SDS011;964;42.606;23.588;2024-02-28T12:48:23;4.57;;;3.97;;
1925;SDS011;964;42.606;23.588;2024-02-28T12:50:50;9.10;;;4.40;;
1925;SDS011;964;42.606;23.588;2024-02-28T12:53:17;9.90;;;6.10;;
1925;SDS011;964;42.606;23.588;2024-02-28T12:55:47;8.67;;;5.30;;
1925;SDS011;964;42.606;23.588;2024-02-28T12:58:14;7.20;;;4.80;;
1925;SDS011;964;42.606;23.588;2024-02-28T13:00:41;5.97;;;3.93;;
1925;SDS011;964;42.606;23.588;2024-02-28T13:03:08;4.90;;;3.47;;
1925;SDS011;964;42.606;23.588;2024-02-28T13:05:35;11.30;;;5.87;;
1925;SDS011;964;42.606;23.588;2024-02-28T13:08:02;9.13;;;4.50;;
1925;SDS011;964;42.606;23.588;2024-02-28T13:10:30;8.17;;;4.77;;
1925;SDS011;964;42.606;23.588;2024-02-28T13:13:00;6.50;;;3.77;;
1925;SDS011;964;42.606;23.588;2024-02-28T13:15:28;6.33;;;3.93;;
1925;SDS011;964;42.606;23.588;2024-02-28T13:17:55;4.70;;;3.17;;
1925;SDS011;964;42.606;23.588;2024-02-28T13:20:21;8.47;;;5.20;;
1925;SDS011;964;42.606;23.588;2024-02-28T13:22:48;9.07;;;4.77;;
1925;SDS011;964;42.606;23.588;2024-02-28T13:25:16;5.20;;;4.00;;
1925;SDS011;964;42.606;23.588;2024-02-28T13:27:44;8.07;;;6.23;;
1925;SDS011;964;42.606;23.588;2024-02-28T13:30:13;7.77;;;4.30;;
1925;SDS011;964;42.606;23.588;2024-02-28T13:32:41;8.13;;;5.33;;
1925;SDS011;964;42.606;23.588;2024-02-28T13:35:07;8.33;;;6.70;;
1925;SDS011;964;42.606;23.588;2024-02-28T13:37:35;5.87;;;5.20;;
1925;SDS011;964;42.606;23.588;2024-02-28T13:40:05;6.07;;;4.30;;
1925;SDS011;964;42.606;23.588;2024-02-28T13:42:33;7.07;;;6.17;;
1925;SDS011;964;42.606;23.588;2024-02-28T13:45:00;8.67;;;6.07;;
1925;SDS011;964;42.606;23.588;2024-02-28T13:47:33;5.27;;;4.77;;
1925;SDS011;964;42.606;23.588;2024-02-28T13:50:00;7.67;;;5.00;;
1925;SDS011;964;42.606;23.588;2024-02-28T13:52:27;5.27;;;3.97;;
1925;SDS011;964;42.606;23.588;2024-02-28T13:54:54;10.00;;;4.77;;
1925;SDS011;964;42.606;23.588;2024-02-28T13:57:21;8.17;;;5.10;;
1925;SDS011;964;42.606;23.588;2024-02-28T13:59:47;8.87;;;3.90;;
1925;SDS011;964;42.606;23.588;2024-02-28T14:02:16;7.50;;;6.30;;
1925;SDS011;964;42.606;23.588;2024-02-28T14:04:44;6.17;;;4.40;;
1925;SDS011;964;42.606;23.588;2024-02-28T14:07:13;7.70;;;5.03;;
1925;SDS011;964;42.606;23.588;2024-02-28T14:09:41;5.53;;;4.73;;
1925;SDS011;964;42.606;23.588;2024-02-28T14:12:08;9.63;;;5.93;;
1925;SDS011;964;42.606;23.588;2024-02-28T14:14:35;8.50;;;5.90;;
1925;SDS011;964;42.606;23.588;2024-02-28T14:17:04;5.83;;;5.27;;
1925;SDS011;964;42.606;23.588;2024-02-28T14:19:31;8.60;;;6.17;;
1925;SDS011;964;42.606;23.588;2024-02-28T14:22:00;7.17;;;5.40;;
1925;SDS011;964;42.606;23.588;2024-02-28T14:24:27;10.63;;;6.60;;
1925;SDS011;964;42.606;23.588;2024-02-28T14:26:54;29.10;;;13.90;;
1925;SDS011;964;42.606;23.588;2024-02-28T14:29:21;23.97;;;11.40;;
1925;SDS011;964;42.606;23.588;2024-02-28T14:31:47;9.83;;;5.97;;
1925;SDS011;964;42.606;23.588;2024-02-28T14:34:14;36.03;;;17.17;;
1925;SDS011;964;42.606;23.588;2024-02-28T14:36:41;19.47;;;8.37;;
1925;SDS011;964;42.606;23.588;2024-02-28T14:39:09;10.20;;;7.30;;
1925;SDS011;964;42.606;23.588;2024-02-28T14:41:40;20.67;;;7.33;;
1925;SDS011;964;42.606;23.588;2024-02-28T14:44:08;33.63;;;15.10;;
1925;SDS011;964;42.606;23.588;2024-02-28T14:46:35;24.23;;;11.30;;
1925;SDS011;964;42.606;23.588;2024-02-28T14:49:02;18.67;;;9.60;;
1925;SDS011;964;42.606;23.588;2024-02-28T14:51:30;23.67;;;10.30;;
1925;SDS011;964;42.606;23.588;2024-02-28T14:53:58;22.53;;;13.50;;
1925;SDS011;964;42.606;23.588;2024-02-28T14:56:26;20.43;;;12.53;;